createdAt,value
2018-07-02T00:02:56.584Z,1.00
2018-07-02T00:06:06.449Z,0.87
2018-07-02T00:09:04.198Z,0.80
2018-07-02T00:12:02.236Z,0.90
2018-07-02T00:15:01.100Z,1.20
2018-07-02T00:17:59.301Z,0.80
2018-07-02T00:20:57.136Z,0.97
2018-07-02T00:23:54.920Z,1.10
2018-07-02T00:26:53.059Z,1.20
2018-07-02T00:29:51.050Z,1.37
2018-07-02T00:32:49.098Z,0.90
2018-07-02T00:35:47.541Z,1.00
2018-07-02T00:38:45.290Z,1.10
2018-07-02T00:41:43.007Z,0.90
2018-07-02T00:44:40.927Z,1.00
2018-07-02T00:47:38.765Z,1.20
2018-07-02T00:50:36.701Z,1.20
2018-07-02T00:53:34.506Z,1.00
2018-07-02T00:56:33.411Z,1.03
2018-07-02T00:59:31.228Z,1.07
2018-07-02T01:02:28.930Z,1.07
2018-07-02T01:05:26.530Z,1.20
2018-07-02T01:08:24.700Z,0.90
2018-07-02T01:11:22.591Z,1.13
2018-07-02T01:14:20.434Z,0.87
2018-07-02T01:17:18.332Z,1.30
2018-07-02T01:20:16.397Z,0.80
2018-07-02T01:23:14.330Z,0.90
2018-07-02T01:26:12.328Z,1.03
2018-07-02T01:29:10.441Z,1.00
2018-07-02T01:32:08.359Z,0.93
2018-07-02T01:35:06.240Z,1.03
2018-07-02T01:38:04.174Z,0.93
2018-07-02T01:41:02.425Z,1.27
2018-07-02T01:44:00.263Z,0.87
2018-07-02T01:46:58.117Z,0.80
2018-07-02T01:49:55.898Z,1.17
2018-07-02T01:52:53.672Z,1.10
2018-07-02T01:55:51.490Z,1.07
2018-07-02T01:58:49.318Z,1.03
2018-07-02T02:01:47.281Z,1.23
2018-07-02T02:04:45.318Z,1.20
2018-07-02T02:07:43.218Z,1.10
2018-07-02T02:10:41.061Z,1.00
2018-07-02T02:13:39.130Z,1.03
2018-07-02T02:16:37.431Z,1.00
2018-07-02T02:19:35.553Z,0.90
2018-07-02T02:22:33.667Z,0.90
2018-07-02T02:25:31.721Z,1.40
2018-07-02T02:28:30.086Z,1.30
2018-07-02T02:31:28.023Z,1.03
2018-07-02T02:34:25.818Z,1.07
2018-07-02T02:37:23.860Z,0.93
2018-07-02T02:40:21.815Z,1.03
2018-07-02T02:43:19.652Z,1.23
2018-07-02T02:46:17.406Z,1.00
2018-07-02T02:49:15.602Z,1.00
2018-07-02T02:52:13.495Z,1.13
2018-07-02T02:55:11.265Z,1.30
2018-07-02T02:58:08.970Z,1.00
2018-07-02T03:01:06.638Z,1.10
2018-07-02T03:04:04.669Z,1.20
2018-07-02T03:07:03.162Z,1.20
2018-07-02T03:10:01.318Z,1.17
2018-07-02T03:12:59.450Z,2.07
2018-07-02T03:15:57.462Z,1.67
2018-07-02T03:18:55.477Z,1.30
2018-07-02T03:21:53.466Z,2.23
2018-07-02T03:24:51.639Z,1.37
2018-07-02T03:27:49.862Z,1.23
2018-07-02T03:30:47.652Z,2.27
2018-07-02T03:33:45.486Z,1.53
2018-07-02T03:36:43.163Z,0.83
2018-07-02T03:39:40.855Z,1.40
2018-07-02T03:42:38.658Z,1.90
2018-07-02T03:45:36.453Z,2.60
2018-07-02T03:48:34.509Z,2.20
2018-07-02T03:51:32.440Z,0.90
2018-07-02T03:54:30.222Z,1.20
2018-07-02T03:57:27.918Z,2.13
2018-07-02T04:00:25.937Z,1.30
2018-07-02T04:03:23.856Z,1.53
2018-07-02T04:06:21.729Z,1.13
2018-07-02T04:09:22.749Z,1.33
2018-07-02T04:12:20.835Z,1.30
2018-07-02T04:15:18.378Z,1.10
2018-07-02T04:18:16.380Z,1.10
2018-07-02T04:21:14.315Z,1.43
2018-07-02T04:24:12.645Z,1.80
2018-07-02T04:27:10.955Z,1.30
2018-07-02T04:30:09.111Z,1.40
2018-07-02T04:33:07.347Z,1.20
2018-07-02T04:36:05.294Z,1.20
2018-07-02T04:39:03.451Z,1.30
2018-07-02T04:42:01.323Z,1.20
2018-07-02T04:44:58.946Z,1.20
2018-07-02T04:47:56.751Z,1.40
2018-07-02T04:50:54.395Z,0.90
2018-07-02T04:53:52.173Z,1.27
2018-07-02T04:56:50.008Z,4.87
2018-07-02T04:59:47.648Z,1.07
2018-07-02T05:02:45.381Z,1.43
2018-07-02T05:05:43.211Z,1.50
2018-07-02T05:08:41.050Z,1.10
2018-07-02T05:11:38.938Z,1.27
2018-07-02T05:14:36.691Z,1.30
2018-07-02T05:17:34.573Z,1.20
2018-07-02T05:20:32.662Z,1.13
2018-07-02T05:23:30.604Z,1.37
2018-07-02T05:26:28.644Z,1.20
2018-07-02T05:29:26.699Z,1.40
2018-07-02T05:32:24.393Z,1.40
2018-07-02T05:35:22.467Z,1.30
2018-07-02T05:38:20.578Z,1.30
2018-07-02T05:41:19.066Z,1.13
2018-07-02T05:44:17.270Z,1.43
2018-07-02T05:47:15.680Z,1.10
2018-07-02T05:50:13.861Z,1.40
2018-07-02T05:53:11.513Z,1.30
2018-07-02T05:56:09.402Z,1.30
2018-07-02T05:59:07.240Z,1.13
2018-07-02T06:02:05.084Z,1.00
2018-07-02T06:05:02.919Z,1.10
2018-07-02T06:08:01.037Z,1.53
2018-07-02T06:10:58.911Z,1.10
2018-07-02T06:13:56.644Z,1.67
2018-07-02T06:16:54.233Z,1.10
2018-07-02T06:19:51.963Z,0.80
2018-07-02T06:22:49.863Z,1.00
2018-07-02T06:25:47.700Z,1.10
2018-07-02T06:28:45.562Z,1.20
2018-07-02T06:31:43.242Z,1.40
2018-07-02T06:34:41.195Z,1.10
2018-07-02T06:37:39.670Z,1.00
2018-07-02T06:40:37.577Z,1.13
2018-07-02T06:43:35.180Z,1.13
2018-07-02T06:46:33.335Z,1.37
2018-07-02T06:49:31.344Z,1.20
2018-07-02T06:52:29.736Z,1.33
2018-07-02T06:55:27.610Z,1.37
2018-07-02T06:58:25.591Z,1.20
2018-07-02T07:01:23.568Z,1.00
2018-07-02T07:04:21.413Z,1.00
2018-07-02T07:07:19.119Z,1.10
2018-07-02T07:10:16.910Z,0.97
2018-07-02T07:13:14.730Z,0.90
2018-07-02T07:16:12.547Z,1.20
2018-07-02T07:19:11.598Z,1.10
2018-07-02T07:22:09.645Z,1.10
2018-07-02T07:25:07.346Z,1.07
2018-07-02T07:28:05.108Z,1.20
2018-07-02T07:31:03.073Z,1.03
2018-07-02T07:34:00.810Z,0.80
2018-07-02T07:36:58.779Z,1.00
2018-07-02T07:39:56.802Z,1.03
2018-07-02T07:42:54.494Z,0.97
2018-07-02T07:45:52.104Z,1.00
2018-07-02T07:48:50.118Z,1.00
2018-07-02T07:51:48.194Z,1.00
2018-07-02T07:54:46.290Z,1.10
2018-07-02T07:57:43.886Z,1.13
2018-07-02T08:00:42.510Z,0.90
2018-07-02T08:03:40.330Z,1.13
2018-07-02T08:06:38.363Z,1.10
2018-07-02T08:09:36.558Z,1.00
2018-07-02T08:12:34.630Z,1.13
2018-07-02T08:15:32.401Z,0.97
2018-07-02T08:18:30.434Z,0.70
2018-07-02T08:21:28.604Z,0.80
2018-07-02T08:24:26.581Z,0.77
2018-07-02T08:27:25.225Z,0.93
2018-07-02T08:30:23.402Z,0.60
2018-07-02T08:33:21.206Z,1.00
2018-07-02T08:36:19.096Z,0.77
2018-07-02T08:39:19.554Z,0.90
2018-07-02T08:42:17.571Z,0.80
2018-07-02T08:45:16.505Z,0.67
2018-07-02T08:48:14.644Z,0.90
2018-07-02T08:51:12.528Z,0.97
2018-07-02T08:54:10.227Z,0.90
2018-07-02T08:57:08.058Z,0.80
2018-07-02T09:00:05.909Z,0.60
2018-07-02T09:03:03.609Z,0.93
2018-07-02T09:06:01.671Z,0.80
2018-07-02T09:08:59.465Z,0.80
2018-07-02T09:11:57.262Z,0.80
2018-07-02T09:14:55.159Z,0.87
2018-07-02T09:17:52.960Z,0.80
2018-07-02T09:20:50.779Z,0.70
2018-07-02T09:23:48.865Z,0.80
2018-07-02T09:26:46.534Z,0.70
2018-07-02T09:29:44.660Z,0.90
2018-07-02T09:32:42.458Z,0.77
2018-07-02T09:35:40.481Z,0.57
2018-07-02T09:38:38.713Z,0.80
2018-07-02T09:41:36.814Z,0.70
2018-07-02T09:44:34.822Z,0.93
2018-07-02T09:47:32.928Z,0.70
2018-07-02T09:50:30.915Z,0.80
2018-07-02T09:53:28.749Z,0.80
2018-07-02T09:56:26.675Z,0.63
2018-07-02T09:59:24.731Z,0.70
2018-07-02T10:02:22.986Z,0.70
2018-07-02T10:05:20.730Z,0.80
2018-07-02T10:08:18.613Z,0.50
2018-07-02T10:11:16.718Z,0.73
2018-07-02T10:14:14.684Z,0.80
2018-07-02T10:17:12.285Z,0.70
2018-07-02T10:20:10.208Z,0.60
2018-07-02T10:23:08.618Z,0.53
2018-07-02T10:26:06.227Z,0.70
2018-07-02T10:29:04.044Z,0.80
2018-07-02T10:32:02.899Z,0.70
2018-07-02T10:35:01.010Z,0.67
2018-07-02T10:37:59.062Z,0.80
2018-07-02T10:40:56.986Z,0.80
2018-07-02T10:43:54.678Z,1.00
2018-07-02T10:46:52.961Z,0.87
2018-07-02T10:49:50.927Z,0.60
2018-07-02T10:52:48.854Z,0.70
2018-07-02T10:55:47.785Z,0.90
2018-07-02T10:58:45.781Z,0.73
2018-07-02T11:01:43.645Z,0.73
2018-07-02T11:04:41.548Z,0.80
2018-07-02T11:07:39.462Z,0.70
2018-07-02T11:10:37.465Z,1.03
2018-07-02T11:13:35.443Z,0.80
2018-07-02T11:16:33.550Z,0.87
2018-07-02T11:19:31.556Z,0.80
2018-07-02T11:22:29.478Z,0.80
2018-07-02T11:25:27.513Z,1.03
2018-07-02T11:28:25.611Z,0.90
2018-07-02T11:31:23.766Z,0.67
2018-07-02T11:34:21.743Z,0.77
2018-07-02T11:37:19.682Z,0.80
2018-07-02T11:40:17.469Z,0.80
2018-07-02T11:43:15.331Z,0.90
2018-07-02T11:46:13.230Z,0.80
2018-07-02T11:49:11.498Z,0.97
2018-07-02T11:52:09.379Z,0.80
2018-07-02T11:55:07.161Z,0.77
2018-07-02T11:58:05.032Z,0.80
2018-07-02T12:01:02.826Z,0.80
2018-07-02T12:04:01.255Z,0.90
2018-07-02T12:06:59.312Z,0.70
2018-07-02T12:09:57.128Z,0.90
2018-07-02T12:12:54.914Z,0.87
2018-07-02T12:15:53.056Z,0.60
2018-07-02T12:18:50.871Z,1.17
2018-07-02T12:21:48.699Z,0.90
2018-07-02T12:24:46.609Z,0.90
2018-07-02T12:27:44.986Z,0.70
2018-07-02T12:30:43.134Z,0.90
2018-07-02T12:33:41.009Z,1.13
2018-07-02T12:36:38.909Z,1.23
2018-07-02T12:39:37.002Z,1.00
2018-07-02T12:42:34.915Z,0.90
2018-07-02T12:45:32.950Z,0.80
2018-07-02T12:48:30.980Z,0.60
2018-07-02T12:51:29.151Z,0.90
2018-07-02T12:54:27.211Z,0.90
2018-07-02T12:57:25.019Z,0.93
2018-07-02T13:00:23.193Z,0.87
2018-07-02T13:03:20.977Z,0.80
2018-07-02T13:06:18.779Z,0.90
2018-07-02T13:09:18.566Z,0.93
2018-07-02T13:12:16.426Z,1.03
2018-07-02T13:15:14.125Z,0.60
2018-07-02T13:18:11.869Z,0.70
2018-07-02T13:21:09.794Z,0.63
2018-07-02T13:24:07.447Z,0.70
2018-07-02T13:27:05.223Z,0.83
2018-07-02T13:30:03.008Z,0.80
2018-07-02T13:33:00.894Z,0.90
2018-07-02T13:35:58.651Z,0.90
2018-07-02T13:38:57.583Z,0.63
2018-07-02T13:41:55.248Z,0.83
2018-07-02T13:44:53.510Z,0.70
2018-07-02T13:47:51.379Z,0.80
2018-07-02T13:50:49.173Z,0.63
2018-07-02T13:53:46.942Z,0.87
2018-07-02T13:56:45.160Z,0.50
2018-07-02T13:59:42.790Z,0.60
2018-07-02T14:02:40.623Z,0.70
2018-07-02T14:05:38.916Z,0.50
2018-07-02T14:08:37.417Z,0.60
2018-07-02T14:11:35.532Z,0.60
2018-07-02T14:14:33.576Z,0.70
2018-07-02T14:17:31.367Z,0.60
2018-07-02T14:20:29.276Z,0.70
2018-07-02T14:23:27.030Z,0.50
2018-07-02T14:26:24.831Z,0.50
2018-07-02T14:29:22.421Z,0.43
2018-07-02T14:32:19.879Z,0.30
2018-07-02T14:35:17.633Z,0.47
2018-07-02T14:38:15.463Z,0.43
2018-07-02T14:41:13.506Z,0.40
2018-07-02T14:44:11.261Z,0.60
2018-07-02T14:47:09.111Z,0.40
2018-07-02T14:50:07.145Z,0.40
2018-07-02T14:53:05.181Z,0.30
2018-07-02T14:56:03.123Z,0.50
2018-07-02T14:59:00.985Z,0.67
2018-07-02T15:01:59.060Z,0.50
2018-07-02T15:04:56.703Z,0.47
2018-07-02T15:07:54.661Z,0.60
2018-07-02T15:10:53.233Z,0.50
2018-07-02T15:13:51.759Z,0.60
2018-07-02T15:16:49.425Z,0.70
2018-07-02T15:19:47.772Z,0.63
2018-07-02T15:22:45.747Z,1.40
2018-07-02T15:25:44.626Z,0.60
2018-07-02T15:28:42.510Z,0.60
2018-07-02T15:31:40.654Z,0.87
2018-07-02T15:34:38.469Z,0.70
2018-07-02T15:37:36.344Z,0.90
2018-07-02T15:40:34.201Z,0.90
2018-07-02T15:43:31.980Z,0.90
2018-07-02T15:46:29.762Z,0.70
2018-07-02T15:49:27.635Z,0.67
2018-07-02T15:52:25.508Z,0.50
2018-07-02T15:55:23.374Z,0.90
2018-07-02T15:58:21.078Z,0.77
2018-07-02T16:01:19.067Z,0.50
2018-07-02T16:04:16.923Z,0.60
2018-07-02T16:07:15.204Z,0.97
2018-07-02T16:10:13.294Z,0.70
2018-07-02T16:13:11.130Z,0.70
2018-07-02T16:16:08.955Z,0.77
2018-07-02T16:19:06.661Z,0.80
2018-07-02T16:22:04.933Z,0.50
2018-07-02T16:25:03.378Z,0.50
2018-07-02T16:28:01.702Z,0.80
2018-07-02T16:30:59.342Z,0.57
2018-07-02T16:33:57.427Z,0.50
2018-07-02T16:36:55.226Z,0.90
2018-07-02T16:39:53.140Z,0.60
2018-07-02T16:42:50.946Z,0.60
2018-07-02T16:45:48.786Z,0.77
2018-07-02T16:48:46.541Z,0.57
2018-07-02T16:51:44.436Z,0.77
2018-07-02T16:54:42.350Z,0.70
2018-07-02T16:57:40.274Z,0.57
2018-07-02T17:00:38.222Z,0.80
2018-07-02T17:03:37.000Z,0.90
2018-07-02T17:06:35.060Z,0.43
2018-07-02T17:09:33.134Z,0.60
2018-07-02T17:12:31.136Z,0.77
2018-07-02T17:15:29.416Z,0.50
2018-07-02T17:18:27.138Z,0.70
2018-07-02T17:21:25.187Z,0.53
2018-07-02T17:24:22.709Z,0.70
2018-07-02T17:27:20.546Z,0.60
2018-07-02T17:30:19.647Z,0.57
2018-07-02T17:33:17.511Z,0.67
2018-07-02T17:36:15.858Z,0.70
2018-07-02T17:39:14.203Z,0.60
2018-07-02T17:42:12.401Z,0.90
2018-07-02T17:45:10.285Z,0.53
2018-07-02T17:48:09.163Z,0.77
2018-07-02T17:51:06.949Z,0.50
2018-07-02T17:54:04.871Z,0.90
2018-07-02T17:57:02.632Z,0.50
2018-07-02T18:00:00.464Z,0.60
2018-07-02T18:02:59.577Z,0.60
2018-07-02T18:05:57.987Z,0.73
2018-07-02T18:08:56.046Z,0.73
2018-07-02T18:11:54.144Z,0.80
2018-07-02T18:14:52.033Z,0.73
2018-07-02T18:17:50.803Z,0.80
2018-07-02T18:20:48.668Z,0.50
2018-07-02T18:23:46.753Z,0.80
2018-07-02T18:26:45.158Z,0.90
2018-07-02T18:29:42.933Z,0.60
2018-07-02T18:32:41.012Z,0.80
2018-07-02T18:35:39.049Z,0.60
2018-07-02T18:38:37.009Z,0.80
2018-07-02T18:41:35.210Z,0.83
2018-07-02T18:44:32.970Z,0.60
2018-07-02T18:47:31.136Z,0.80
2018-07-02T18:50:29.344Z,0.90
2018-07-02T18:53:27.058Z,0.70
2018-07-02T18:56:25.233Z,0.80
2018-07-02T18:59:23.061Z,1.10
2018-07-02T19:02:20.890Z,0.87
2018-07-02T19:05:18.527Z,0.70
2018-07-02T19:08:16.133Z,0.77
2018-07-02T19:11:14.544Z,0.80
2018-07-02T19:14:12.295Z,1.00
2018-07-02T19:17:10.015Z,0.90
2018-07-02T19:20:07.617Z,1.07
2018-07-02T19:23:05.514Z,0.77
2018-07-02T19:26:03.311Z,0.90
2018-07-02T19:29:01.038Z,1.07
2018-07-02T19:31:58.875Z,0.87
2018-07-02T19:34:56.814Z,0.70
2018-07-02T19:37:54.701Z,0.80
2018-07-02T19:40:52.523Z,0.80
2018-07-02T19:43:50.736Z,0.60
2018-07-02T19:46:48.826Z,1.33
2018-07-02T19:49:46.658Z,0.80
2018-07-02T19:52:44.940Z,0.80
2018-07-02T19:55:42.894Z,1.10
2018-07-02T19:58:41.051Z,1.00
2018-07-02T20:01:39.514Z,1.30
2018-07-02T20:04:37.763Z,1.50
2018-07-02T20:07:35.533Z,1.10
2018-07-02T20:10:33.483Z,1.40
2018-07-02T20:13:31.371Z,1.30
2018-07-02T20:16:29.160Z,0.93
2018-07-02T20:19:26.957Z,1.30
2018-07-02T20:22:24.855Z,1.43
2018-07-02T20:25:22.631Z,1.00
2018-07-02T20:28:20.526Z,1.30
2018-07-02T20:31:18.426Z,0.93
2018-07-02T20:34:16.299Z,1.43
2018-07-02T20:37:14.127Z,1.33
2018-07-02T20:40:12.000Z,1.30
2018-07-02T20:43:09.909Z,1.40
2018-07-02T20:46:08.044Z,1.30
2018-07-02T20:49:05.744Z,1.30
2018-07-02T20:52:04.137Z,1.77
2018-07-02T20:55:01.954Z,1.37
2018-07-02T20:57:59.714Z,1.30
2018-07-02T21:00:57.679Z,1.33
2018-07-02T21:03:55.474Z,1.40
2018-07-02T21:06:53.107Z,1.30
2018-07-02T21:09:51.391Z,1.23
2018-07-02T21:12:49.773Z,1.57
2018-07-02T21:15:47.748Z,1.30
2018-07-02T21:18:45.836Z,2.30
2018-07-02T21:21:43.796Z,1.30
2018-07-02T21:24:41.736Z,1.47
2018-07-02T21:27:39.556Z,1.53
2018-07-02T21:30:37.434Z,1.67
2018-07-02T21:33:35.266Z,1.63
2018-07-02T21:36:33.328Z,1.50
2018-07-02T21:39:31.099Z,1.80
2018-07-02T21:42:28.745Z,1.40
2018-07-02T21:45:33.588Z,1.20
2018-07-02T21:48:31.532Z,1.30
2018-07-02T21:51:29.216Z,1.60
2018-07-02T21:54:26.971Z,1.70
2018-07-02T21:57:24.798Z,1.63
2018-07-02T22:00:23.620Z,1.30
2018-07-02T22:03:21.907Z,1.67
2018-07-02T22:06:19.908Z,1.70
2018-07-02T22:09:18.713Z,1.57
2018-07-02T22:12:16.629Z,1.73
2018-07-02T22:15:15.058Z,2.00
2018-07-02T22:18:13.014Z,1.70
2018-07-02T22:21:10.859Z,1.40
2018-07-02T22:24:08.929Z,1.73
2018-07-02T22:27:06.728Z,1.67
2018-07-02T22:30:04.492Z,1.50
2018-07-02T22:33:02.114Z,1.80
2018-07-02T22:36:00.047Z,1.30
2018-07-02T22:39:00.937Z,1.60
2018-07-02T22:42:00.186Z,1.63
2018-07-02T22:44:58.296Z,1.70
2018-07-02T22:47:56.325Z,2.03
2018-07-02T22:50:54.652Z,1.70
2018-07-02T22:53:52.614Z,1.63
2018-07-02T22:56:50.384Z,1.63
2018-07-02T22:59:48.101Z,1.60
2018-07-02T23:02:45.958Z,1.50
2018-07-02T23:05:44.314Z,1.90
2018-07-02T23:08:42.151Z,1.50
2018-07-02T23:11:40.135Z,1.57
2018-07-02T23:14:38.146Z,1.80
2018-07-02T23:17:35.940Z,1.90
2018-07-02T23:20:34.266Z,1.50
2018-07-02T23:23:32.166Z,1.87
2018-07-02T23:26:30.042Z,1.80
2018-07-02T23:29:27.974Z,2.00
2018-07-02T23:32:25.635Z,1.80
2018-07-02T23:35:24.826Z,1.77
2018-07-02T23:38:22.542Z,1.60
2018-07-02T23:41:20.622Z,1.90
2018-07-02T23:44:18.506Z,2.60
2018-07-02T23:47:16.809Z,1.93
2018-07-02T23:50:15.867Z,1.70
2018-07-02T23:53:13.469Z,1.60
2018-07-02T23:56:20.236Z,2.30
2018-07-02T23:59:18.096Z,1.77
